Thunder radar more information blitzortung!


Radar de pluja more information rain snow radar


Visita la nostra xarxa de llocs de meteo:

Template documentation
and downloads

And another site



No particular awareness of the weather is required.    There are no Weather-warnings

Pagina Historial Weather Underground text

Diari Resum Marc 10, 2018 Unitats:  Mètric    Imperial   Tant
« Previous Dia
SegĂźent Dia »
Diari Setmana Mensual Anual Personalitzada
  Maxima: Minima: Media:
Temperatura: -17.8 °C -12.1 °C -9.7 °C
Punt de rosada: -17.8 °C -13.9 °C -12.7 °C
Humitat: Humidity % 45 % 72 %
Wind Speed: 0 km/h 0 km/h 10.6 km/h
RĂ fegues de vent: 0 km/h - -
Vent:- - SW
Pression baro: 0 hPa 33958.2 hPa -
Precipitacions: 33.02 mm    
Historical Graphs
 
 
Dades de taula per Marc 10, 2018
Temps Temperatura Punt de rosada Pression baro Vent Wind Speed RĂ fegues de vent Humitat Rainfall Rate (Hourly)
-17.8 °C -17.8 °C 0 hPa Calm     Humidity % 0 mm
00:03 -11.4 °C -13.3 °C 34256.2 hPa SW 3.7 km/h 3.7 km/h 79 % 0 mm
00:08 -11.4 °C -13.3 °C 34256.2 hPa SW 6 km/h 6 km/h 79 % 0 mm
00:13 -11.4 °C -13.3 °C 34256.2 hPa Calm     79 % 0 mm
00:18 -11.3 °C -13.3 °C 34256.2 hPa SW 5.1 km/h 5.1 km/h 79 % 0 mm
00:23 -11.3 °C -13.3 °C 34256.2 hPa WSW 3.1 km/h 3.1 km/h 79 % 0 mm
00:28 -11.3 °C -13.3 °C 34256.2 hPa North 3.1 km/h   79 % 0 mm
00:33 -11.3 °C -13.1 °C 34256.2 hPa NNE 9 km/h 9 km/h 80 % 0 mm
00:38 -11.3 °C -13 °C 34198.6 hPa NE 3.1 km/h   81 % 0 mm
00:43 -11.3 °C -13 °C 34198.6 hPa Calm     81 % 0 mm
00:48 -11.3 °C -13 °C 34198.6 hPa Calm     81 % 0 mm
00:53 -11.3 °C -13.1 °C 34222.3 hPa Calm     80 % 0 mm
00:58 -11.3 °C -13 °C 34222.3 hPa Calm     81 % 0 mm
01:03 -11.3 °C -13.1 °C 34222.3 hPa Calm     81 % 0 mm
01:08 -11.4 °C -13.2 °C 34222.3 hPa Calm     81 % 0 mm
01:13 -11.4 °C -13.2 °C 34222.3 hPa South 2.3 km/h   81 % 0 mm
01:18 -11.4 °C -13.2 °C 34222.3 hPa SW 3.7 km/h 3.7 km/h 81 % 0 mm
01:23 -11.4 °C -13.2 °C 34222.3 hPa Calm     81 % 0 mm
01:28 -11.4 °C -13.2 °C 34222.3 hPa Calm     81 % 0 mm
01:33 -11.4 °C -13.2 °C 34222.3 hPa SW 6 km/h 6 km/h 81 % 0 mm
01:38 -11.4 °C -13.2 °C 34198.6 hPa SSW 6 km/h 6 km/h 81 % 0 mm
01:43 -11.4 °C -13.2 °C 34198.6 hPa SW 6 km/h 6 km/h 81 % 0 mm
01:48 -11.5 °C -13.3 °C 34198.6 hPa WSW 6 km/h 6 km/h 80 % 0 mm
01:53 -11.4 °C -13.2 °C 34198.6 hPa WSW 3.1 km/h   81 % 0 mm
01:58 -11.4 °C -13.1 °C 34198.6 hPa WSW 3.1 km/h 3.1 km/h 82 % 0 mm
02:03 -11.4 °C -13.2 °C 34198.6 hPa West 6 km/h 6 km/h 81 % 0 mm
02:08 -11.4 °C -13.1 °C 34198.6 hPa WSW 3.7 km/h 3.7 km/h 82 % 0 mm
02:13 -11.4 °C -13.2 °C 34198.6 hPa West 6 km/h 6 km/h 81 % 0 mm
02:18 -11.4 °C -13.1 °C 34198.6 hPa West 6 km/h 6 km/h 82 % 0 mm
02:23 -11.4 °C -13.1 °C 34198.6 hPa WSW 6 km/h 6 km/h 82 % 0 mm
02:28 -11.4 °C -13.1 °C 34198.6 hPa West 6 km/h 6 km/h 82 % 0 mm
02:33 -11.4 °C -13.1 °C 34198.6 hPa WNW 3.1 km/h   82 % 0 mm
02:38 -11.4 °C -13.1 °C 34198.6 hPa NE 4.2 km/h 4.2 km/h 82 % 0 mm
02:43 -11.4 °C -13 °C 34198.6 hPa ENE 6 km/h 6 km/h 83 % 0 mm
02:48 -11.4 °C -13 °C 34198.6 hPa NNE 6.3 km/h 6.3 km/h 83 % 0 mm
02:53 -11.5 °C -13.1 °C 34198.6 hPa NE 3.7 km/h 3.7 km/h 83 % 0 mm
02:58 -11.5 °C -13.1 °C 34198.6 hPa WSW 3.7 km/h 3.7 km/h 83 % 0 mm
03:03 -11.5 °C -13.1 °C 34198.6 hPa West 3.1 km/h   83 % 0 mm
03:08 -11.6 °C -13.1 °C 34198.6 hPa Calm     83 % 0 mm
03:13 -11.7 °C -13.3 °C 34198.6 hPa WSW 3.1 km/h   82 % 0 mm
03:18 -11.7 °C -13.3 °C 34198.6 hPa SW 4.2 km/h 4.2 km/h 82 % 0 mm
03:23 -11.7 °C -13.3 °C 34198.6 hPa Calm     83 % 0 mm
03:28 -11.8 °C -13.3 °C 34198.6 hPa Calm     83 % 0 mm
03:33 -11.8 °C -13.3 °C 34198.6 hPa SW 4.2 km/h 4.2 km/h 83 % 0 mm
03:38 -11.9 °C -13.5 °C 34198.6 hPa SW 6 km/h 6 km/h 82 % 0 mm
03:43 -11.9 °C -13.5 °C 34198.6 hPa SW 6.3 km/h 6.3 km/h 82 % 0 mm
03:48 -11.9 °C -13.5 °C 34198.6 hPa SW 6 km/h 6 km/h 82 % 0 mm
03:53 -11.9 °C -13.5 °C 34198.6 hPa SW 6.3 km/h 6.3 km/h 83 % 0 mm
03:58 -11.9 °C -13.6 °C 34198.6 hPa WSW 6 km/h 6 km/h 82 % 0 mm
04:03 -11.9 °C -13.4 °C 34198.6 hPa West 3.1 km/h 3.1 km/h 83 % 0 mm
04:08 -11.8 °C -13.3 °C 34198.6 hPa West 3.1 km/h   84 % 0 mm
04:13 -11.8 °C -13.3 °C 34198.6 hPa West 2.3 km/h   84 % 0 mm
04:18 -11.8 °C -13.3 °C 34198.6 hPa Calm     84 % 0 mm
04:23 -11.8 °C -13.1 °C 34164.7 hPa Calm     85 % 0 mm
04:28 -11.8 °C -13.2 °C 34164.7 hPa SW 3.7 km/h 3.7 km/h 84 % 0 mm
04:33 -11.8 °C -13.2 °C 34164.7 hPa Calm     84 % 0 mm
04:38 -11.8 °C -13.1 °C 34164.7 hPa WSW 4.2 km/h   85 % 0 mm
04:43 -11.7 °C -13.1 °C 34164.7 hPa SW 6 km/h 6 km/h 85 % 0 mm
04:48 -11.7 °C -13.2 °C 34164.7 hPa WSW 6.3 km/h 6.3 km/h 84 % 0 mm
04:53 -11.7 °C -13.2 °C 34164.7 hPa WSW 6 km/h 6 km/h 84 % 0 mm
04:58 -11.7 °C -13.1 °C 34164.7 hPa SW 6 km/h 6 km/h 84 % 0 mm
05:03 -11.6 °C -13.1 °C 34164.7 hPa West 6 km/h 6 km/h 84 % 0 mm
05:08 -11.6 °C -13.1 °C 34164.7 hPa SW 7.6 km/h 7.6 km/h 84 % 0 mm
05:13 -11.6 °C -13.1 °C 34164.7 hPa WSW 8 km/h 8 km/h 83 % 0 mm
05:18 -11.6 °C -13 °C 34164.7 hPa WSW 6 km/h 6 km/h 84 % 0 mm
05:23 -11.6 °C -13.1 °C 34164.7 hPa WSW 6 km/h 6 km/h 84 % 0 mm
05:28 -11.6 °C -13.1 °C 34164.7 hPa West 7.6 km/h 7.6 km/h 84 % 0 mm
05:33 -11.6 °C -13 °C 34164.7 hPa SW 3.1 km/h   84 % 0 mm
05:38 -11.6 °C -12.9 °C 34164.7 hPa West 3.1 km/h 3.1 km/h 85 % 0 mm
05:43 -11.6 °C -13.1 °C 34164.7 hPa West 9 km/h 9 km/h 84 % 0 mm
05:48 -11.6 °C -13.1 °C 34164.7 hPa WSW 3.1 km/h 3.7 km/h 84 % 0 mm
05:53 -11.6 °C -13 °C 34198.6 hPa West 5.1 km/h 5.1 km/h 84 % 0 mm
05:58 -11.6 °C -13 °C 34198.6 hPa WSW 6.3 km/h 6.3 km/h 84 % 0 mm
06:03 -11.6 °C -13 °C 34198.6 hPa SW 6 km/h 6 km/h 84 % 0 mm
06:08 -11.6 °C -13 °C 34164.7 hPa West 6 km/h 6 km/h 84 % 0 mm
06:13 -11.6 °C -13.1 °C 34164.7 hPa WNW 9 km/h 9 km/h 84 % 0 mm
06:18 -11.6 °C -13.1 °C 34164.7 hPa WSW 9 km/h 9 km/h 84 % 0 mm
06:23 -11.6 °C -13.1 °C 34164.7 hPa West 8 km/h 8 km/h 84 % 0 mm
06:28 -11.7 °C -13.1 °C 34164.7 hPa West 11.9 km/h 11.9 km/h 84 % 0 mm
06:33 -11.7 °C -13.1 °C 34164.7 hPa West 9 km/h 9 km/h 84 % 0 mm
06:38 -11.7 °C -13.1 °C 34164.7 hPa West 11.9 km/h 11.9 km/h 84 % 0 mm
06:43 -11.7 °C -13.2 °C 34164.7 hPa WSW 8 km/h 8 km/h 84 % 0 mm
06:48 -11.7 °C -13.2 °C 34164.7 hPa West 6 km/h 6.8 km/h 84 % 0 mm
06:53 -11.8 °C -13.1 °C 34164.7 hPa SW 3.1 km/h   85 % 0 mm
06:58 -11.8 °C -13.1 °C 34164.7 hPa West 8 km/h 8 km/h 85 % 0 mm
07:03 -11.8 °C -13.3 °C 34164.7 hPa WSW 9.3 km/h 9.3 km/h 84 % 0 mm
07:08 -11.9 °C -13.4 °C 34130.9 hPa SSW 3.1 km/h   84 % 0 mm
07:13 -11.9 °C -13.3 °C 34130.9 hPa East 3.1 km/h 3.1 km/h 85 % 0 mm
07:18 -12 °C -13.3 °C 34130.9 hPa Calm     85 % 0 mm
07:23 -12 °C -13.2 °C 34164.7 hPa Calm     86 % 0 mm
07:28 -12.1 °C -13.3 °C 34164.7 hPa ENE 6 km/h 6 km/h 86 % 0 mm
07:33 -12.1 °C -13.3 °C 34164.7 hPa WNW 3.1 km/h   86 % 0 mm
07:38 -12 °C -13.2 °C 34198.6 hPa WSW 5.1 km/h 5.1 km/h 86 % 0 mm
07:43 -12 °C -13.3 °C 34198.6 hPa WSW 6 km/h 6 km/h 85 % 0 mm
07:49 -12 °C -13.3 °C 34198.6 hPa WSW 3.1 km/h   85 % 0 mm
07:54 -12 °C -13.2 °C 34164.7 hPa SW 3.1 km/h   86 % 0 mm
07:59 -12 °C -13.2 °C 34164.7 hPa SW 3.7 km/h 3.7 km/h 86 % 0 mm
08:04 -12 °C -13.2 °C 34164.7 hPa SW 3.1 km/h   86 % 0 mm
08:09 -12.1 °C -13.3 °C 34198.6 hPa WSW 6 km/h 6 km/h 86 % 0 mm
08:14 -12.1 °C -13.4 °C 34198.6 hPa WSW 6.3 km/h 6.3 km/h 85 % 0 mm
08:19 -12.1 °C -13.4 °C 34198.6 hPa WSW 3.1 km/h 3.1 km/h 85 % 0 mm
08:24 -12.1 °C -13.3 °C 34198.6 hPa Calm     86 % 0 mm
08:29 -12 °C -13.2 °C 34198.6 hPa SW 3.1 km/h 3.1 km/h 86 % 0 mm
08:34 -11.9 °C -13.1 °C 34198.6 hPa ENE 4.2 km/h   87 % 0 mm
08:39 -11.9 °C -13.1 °C 34198.6 hPa NNE 9 km/h 9 km/h 87 % 0 mm
08:44 -11.9 °C -13.1 °C 34198.6 hPa West 6 km/h 6 km/h 87 % 0 mm
08:49 -11.8 °C -13.1 °C 34198.6 hPa Calm     86 % 0 mm
08:54 -11.8 °C -12.9 °C 34198.6 hPa WSW 4.2 km/h   87 % 0 mm
08:59 -11.7 °C -12.9 °C 34198.6 hPa SW 3.1 km/h   86 % 0 mm
09:04 -11.6 °C -12.9 °C 34198.6 hPa SSE 6 km/h 6 km/h 86 % 0 mm
09:09 -11.6 °C -12.8 °C 34198.6 hPa NNE 6 km/h   86 % 0 mm
09:14 -11.4 °C -12.7 °C 34198.6 hPa ENE 6 km/h 6 km/h 86 % 0 mm
09:19 -11.3 °C -12.6 °C 34198.6 hPa SW 6 km/h   86 % 0 mm
09:24 -11.2 °C -12.6 °C 34222.3 hPa WSW 6 km/h 6 km/h 85 % 0 mm
09:29 -11.1 °C -12.4 °C 34222.3 hPa WSW 9 km/h 9 km/h 85 % 0 mm
09:34 -10.8 °C -12.3 °C 34222.3 hPa WSW 7.6 km/h 7.6 km/h 84 % 0 mm
09:39 -10.6 °C -12.1 °C 34222.3 hPa WSW 6 km/h 6 km/h 84 % 0 mm
09:44 -10.4 °C -12 °C 34222.3 hPa SW 9 km/h 9 km/h 83 % 0 mm
09:49 -10.2 °C -11.8 °C 34222.3 hPa WSW 6 km/h 6 km/h 83 % 0 mm
09:54 -10.1 °C -11.7 °C 34198.6 hPa Calm     82 % 0 mm
09:59 -9.8 °C -11.6 °C 34198.6 hPa West 3.1 km/h 3.1 km/h 81 % 0 mm
10:04 -9.7 °C -11.5 °C 34198.6 hPa WSW 6.8 km/h 6.8 km/h 81 % 0 mm
10:09 -9.7 °C -11.6 °C 34222.3 hPa West 12.2 km/h 12.2 km/h 80 % 0 mm
10:14 -9.6 °C -11.6 °C 34222.3 hPa SW 11.9 km/h 11.9 km/h 79 % 0 mm
10:19 -9.4 °C -11.4 °C 34222.3 hPa WSW 6.8 km/h 6.8 km/h 79 % 0 mm
10:24 -9.3 °C -11.3 °C 34198.6 hPa West 6 km/h 6 km/h 79 % 0 mm
10:29 -9 °C -11.2 °C 34198.6 hPa SW 6 km/h 6 km/h 78 % 0 mm
10:34 -8.7 °C -10.9 °C 34198.6 hPa SSE 6.8 km/h 6.8 km/h 77 % 0 mm
10:39 -8.4 °C -10.8 °C 34198.6 hPa SW 6 km/h 6 km/h 76 % 0 mm
10:44 -8.3 °C -10.8 °C 34198.6 hPa WSW 9 km/h 9 km/h 75 % 0 mm
10:49 -8.4 °C -10.9 °C 34198.6 hPa SSW 15 km/h 15 km/h 75 % 0 mm
10:54 -8 °C -10.8 °C 34198.6 hPa SSW 11.9 km/h 11.9 km/h 72 % 0 mm
10:59 -7.9 °C -10.9 °C 34198.6 hPa SW 23.8 km/h 23.8 km/h 71 % 0 mm
11:04 -7.9 °C -11.1 °C 34198.6 hPa SSW 26.9 km/h 26.9 km/h 69 % 0 mm
11:09 -7.9 °C -11.5 °C 34198.6 hPa WSW 17.9 km/h 17.9 km/h 66 % 0 mm
11:14 -7.8 °C -11.3 °C 34198.6 hPa SW 20.9 km/h 20.9 km/h 66 % 0 mm
11:19 -7.9 °C -11.6 °C 34198.6 hPa SSW 26.9 km/h 26.9 km/h 65 % 0 mm
11:24 -7.9 °C -11.7 °C 34198.6 hPa South 26.9 km/h 26.9 km/h 64 % 0 mm
11:29 -8.1 °C -12 °C 34198.6 hPa SW 32.8 km/h 32.8 km/h 63 % 0 mm
11:34 -8.1 °C -11.9 °C 34198.6 hPa SW 29.8 km/h 29.8 km/h 64 % 0 mm
11:39 -8.1 °C -11.9 °C 34164.7 hPa SSW 20.9 km/h 20.9 km/h 64 % 0 mm
11:44 -7.8 °C -11.6 °C 34164.7 hPa WSW 11.9 km/h 11.9 km/h 64 % 0 mm
11:49 -7.6 °C -11.4 °C 34164.7 hPa WSW 15.3 km/h 15.3 km/h 64 % 0 mm
11:54 -7.4 °C -11.3 °C 34198.6 hPa SW 15 km/h 15 km/h 64 % 0 mm
11:59 -7.2 °C -11.2 °C 34198.6 hPa SW 11.9 km/h 11.9 km/h 63 % 0 mm
12:04 -7.2 °C -11.3 °C 34198.6 hPa SW 17.9 km/h 17.9 km/h 62 % 0 mm
12:09 -7.1 °C -11.2 °C 34164.7 hPa South 6 km/h 6.3 km/h 62 % 0 mm
12:14 -6.7 °C -10.9 °C 34164.7 hPa SW 20.9 km/h 20.9 km/h 62 % 0 mm
13:26 -5.9 °C -11.6 °C 34130.9 hPa SW 17.9 km/h 17.9 km/h 52 % 0 mm
13:31 -6.1 °C -11.9 °C 34130.9 hPa SW 20.9 km/h 20.9 km/h 51 % 0 mm
13:36 -6.2 °C -12 °C 34130.9 hPa WSW 35.7 km/h 35.7 km/h 51 % 0 mm
13:41 -6.1 °C -12.1 °C 34130.9 hPa SSW 23.8 km/h 23.8 km/h 50 % 0 mm
13:46 -6.1 °C -12.1 °C 34130.9 hPa SSW 38.8 km/h 38.8 km/h 50 % 0 mm
13:51 -6.1 °C -12.3 °C 34097 hPa SSW 41.7 km/h 41.7 km/h 49 % 0 mm
13:56 -6.1 °C -12.3 °C 34097 hPa SSE 32.8 km/h 32.8 km/h 49 % 0 mm
14:01 -6.1 °C -12.3 °C 34097 hPa SW 16.1 km/h 22 km/h 49 % 0 mm
14:06 -6.1 °C -12.3 °C 34097 hPa SW 32.8 km/h 32.8 km/h 49 % 0 mm
14:11 -5.8 °C -11.9 °C 34097 hPa SW 20.9 km/h 20.9 km/h 50 % 0 mm
14:16 -5.9 °C -12.1 °C 34097 hPa SSW 26.9 km/h 26.9 km/h 49 % 0 mm
14:21 -5.8 °C -12.2 °C 34097 hPa South 26.4 km/h 26.4 km/h 48 % 0 mm
14:26 -5.8 °C -12 °C 34097 hPa SSW 27.2 km/h 27.2 km/h 49 % 0 mm
14:31 -5.7 °C -12.1 °C 34097 hPa SW 39.4 km/h 39.4 km/h 48 % 0 mm
14:36 -5.9 °C -12.3 °C 34063.2 hPa SW 23.8 km/h 23.8 km/h 48 % 0 mm
14:41 -5.8 °C -12.2 °C 34063.2 hPa SSW 20.9 km/h 20.9 km/h 48 % 0 mm
14:46 -5.8 °C -12.2 °C 34063.2 hPa WSW 35.7 km/h 35.7 km/h 48 % 0 mm
14:51 -5.8 °C -12.2 °C 34029.3 hPa SW 35.7 km/h 35.7 km/h 48 % 0 mm
14:56 -5.6 °C -11.9 °C 34029.3 hPa SW 17.9 km/h 17.9 km/h 48 % 0 mm
15:01 -5.6 °C -12 °C 34029.3 hPa SSW 26.9 km/h 26.9 km/h 48 % 0 mm
15:06 -5.9 °C -12.4 °C 34063.2 hPa SW 26.9 km/h 26.9 km/h 47 % 0 mm
15:11 -5.9 °C -12.4 °C 34063.2 hPa SW 35.7 km/h 35.7 km/h 47 % 0 mm
15:16 -6.1 °C -12.6 °C 34063.2 hPa WSW 35.7 km/h 35.7 km/h 47 % 0 mm
15:21 -6.1 °C -12.8 °C 34063.2 hPa SW 53.6 km/h 53.6 km/h 46 % 0 mm
15:26 -6.1 °C -12.6 °C 34063.2 hPa SW 41.7 km/h 41.7 km/h 47 % 0 mm
15:31 -6.1 °C -12.8 °C 34063.2 hPa WSW 32.3 km/h 32.3 km/h 46 % 0 mm
15:36 -6.1 °C -12.6 °C 34063.2 hPa WNW 32.8 km/h 32.8 km/h 47 % 0 mm
15:41 -6.1 °C -12.6 °C 34063.2 hPa SW 26.9 km/h 26.9 km/h 47 % 0 mm
15:46 -6.1 °C -12.6 °C 34063.2 hPa WSW 26.9 km/h 26.9 km/h 47 % 0 mm
15:51 -5.9 °C -12.5 °C 34063.2 hPa SSW 29.8 km/h 29.8 km/h 47 % 0 mm
15:56 -6 °C -12.6 °C 34063.2 hPa West 20.9 km/h 20.9 km/h 47 % 0 mm
16:01 -5.9 °C -12.5 °C 34063.2 hPa SSW 11.9 km/h 11.9 km/h 47 % 0 mm
16:06 -5.8 °C -12.4 °C 34063.2 hPa SSW 15 km/h 15 km/h 47 % 0 mm
16:11 -5.8 °C -12.4 °C 34063.2 hPa SSW 17.9 km/h 17.9 km/h 47 % 0 mm
16:16 -6.1 °C -12.6 °C 34063.2 hPa WSW 17.9 km/h 17.9 km/h 47 % 0 mm
16:21 -5.9 °C -12.4 °C 34063.2 hPa WSW 15 km/h 15 km/h 47 % 0 mm
16:26 -5.8 °C -12.4 °C 34063.2 hPa South 15 km/h 15 km/h 47 % 0 mm
16:31 -5.7 °C -12.1 °C 34063.2 hPa SSW 15.3 km/h 15.3 km/h 48 % 0 mm
16:36 -5.8 °C -12.4 °C 34029.3 hPa SW 23.8 km/h 23.8 km/h 47 % 0 mm
16:41 -6.1 °C -12.8 °C 34029.3 hPa SW 41.7 km/h 41.7 km/h 46 % 0 mm
16:46 -6.1 °C -12.8 °C 34029.3 hPa SW 20.9 km/h 20.9 km/h 46 % 0 mm
16:51 -6 °C -12.7 °C 34029.3 hPa South 26.9 km/h 26.9 km/h 46 % 0 mm
16:56 -6 °C -12.9 °C 34029.3 hPa SSE 17.9 km/h 17.9 km/h 45 % 0 mm
17:01 -5.9 °C -12.8 °C 34029.3 hPa SSW 20.9 km/h 20.9 km/h 45 % 0 mm
17:06 -6 °C -12.9 °C 34029.3 hPa SW 15 km/h 15.6 km/h 45 % 0 mm
17:11 -6.1 °C -12.9 °C 34029.3 hPa SW 20.9 km/h 20.9 km/h 45 % 0 mm
17:16 -6.2 °C -12.9 °C 34029.3 hPa South 15 km/h 15 km/h 46 % 0 mm
17:21 -6.2 °C -12.9 °C 33992.1 hPa SSW 17.9 km/h 17.9 km/h 46 % 0 mm
17:26 -6.1 °C -12.8 °C 33992.1 hPa WSW 9 km/h 9 km/h 46 % 0 mm
17:31 -6.2 °C -12.7 °C 33992.1 hPa South 15 km/h 15 km/h 47 % 0 mm
17:36 -6.4 °C -12.9 °C 33992.1 hPa SW 15 km/h 15 km/h 47 % 0 mm
17:41 -6.6 °C -13.3 °C 33992.1 hPa South 9.3 km/h 10.3 km/h 46 % 0 mm
17:46 -6.8 °C -13.2 °C 33992.1 hPa WSW 15 km/h 15 km/h 47 % 0 mm
17:51 -6.9 °C -13.3 °C 33992.1 hPa SSE 9 km/h 9 km/h 47 % 0 mm
17:56 -6.9 °C -13.2 °C 33992.1 hPa SW 9 km/h 12.2 km/h 48 % 0 mm
18:01 -7 °C -13.3 °C 33992.1 hPa SSW 15 km/h 15 km/h 48 % 0 mm
18:06 -7.2 °C -13.5 °C 33992.1 hPa SW 16.1 km/h 16.1 km/h 48 % 0 mm
18:11 -7.4 °C -13.5 °C 33992.1 hPa South 15 km/h 15 km/h 49 % 0 mm
18:16 -7.6 °C -13.7 °C 33992.1 hPa SW 14 km/h 14 km/h 49 % 0 mm
18:21 -7.7 °C -13.6 °C 33992.1 hPa SSW 20.9 km/h 20.9 km/h 50 % 0 mm
18:26 -7.9 °C -13.8 °C 33992.1 hPa SW 20.9 km/h 20.9 km/h 50 % 0 mm
18:31 -8 °C -13.8 °C 33992.1 hPa SSW 20.9 km/h 20.9 km/h 50 % 0 mm
18:36 -8.1 °C -13.8 °C 33992.1 hPa SW 23.8 km/h 23.8 km/h 51 % 0 mm
18:41 -8.3 °C -13.9 °C 33992.1 hPa South 17.9 km/h 17.9 km/h 51 % 0 mm
18:46 -8.4 °C -13.8 °C 33992.1 hPa West 15 km/h 15 km/h 53 % 0 mm
18:51 -8.6 °C -13.8 °C 33992.1 hPa SSW 25.4 km/h 25.4 km/h 54 % 0 mm
18:56 -8.7 °C -13.6 °C 33992.1 hPa SW 17.9 km/h 17.9 km/h 56 % 0 mm
19:01 -8.8 °C -13.6 °C 33992.1 hPa SW 19.6 km/h 19.6 km/h 57 % 0 mm
19:06 -9.1 °C -13.2 °C 34029.3 hPa South 23.8 km/h 23.8 km/h 61 % 0 mm
19:11 -9.2 °C -13.1 °C 34029.3 hPa SSW 26.9 km/h 26.9 km/h 63 % 0 mm
19:16 -9.4 °C -12.9 °C 34029.3 hPa West 23.8 km/h 23.8 km/h 66 % 0 mm
19:21 -9.5 °C -12.9 °C 34029.3 hPa SSW 15 km/h 15 km/h 67 % 0 mm
19:26 -9.6 °C -12.8 °C 34029.3 hPa WSW 23.8 km/h 23.8 km/h 68 % 0 mm
19:31 -9.6 °C -12.9 °C 34029.3 hPa SW 23.8 km/h 23.8 km/h 68 % 0 mm
19:36 -9.6 °C -12.7 °C 34063.2 hPa WSW 17.9 km/h 17.9 km/h 69 % 0 mm
19:41 -9.7 °C -12.8 °C 34063.2 hPa SW 11.9 km/h 11.9 km/h 69 % 0 mm
19:46 -9.7 °C -12.8 °C 34063.2 hPa SW 9 km/h 9 km/h 69 % 0 mm
19:51 -9.7 °C -12.8 °C 34029.3 hPa WSW 11.9 km/h 11.9 km/h 69 % 0 mm
19:56 -9.7 °C -12.6 °C 34029.3 hPa SSW 7.6 km/h 7.6 km/h 71 % 0 mm
20:01 -9.7 °C -12.7 °C 34029.3 hPa SSW 14 km/h 14 km/h 70 % 0 mm
20:06 -9.7 °C -12.6 °C 34063.2 hPa WNW 15 km/h 15 km/h 71 % 0 mm
20:11 -9.7 °C -12.6 °C 34063.2 hPa SW 9 km/h 9 km/h 71 % 0 mm
20:16 -9.7 °C -12.6 °C 34063.2 hPa WSW 9 km/h 9 km/h 71 % 0 mm
20:21 -9.7 °C -12.6 °C 34063.2 hPa SW 9 km/h 9 km/h 71 % 0 mm
20:26 -9.7 °C -12.5 °C 34063.2 hPa WSW 6 km/h 6 km/h 72 % 0 mm
20:31 -9.8 °C -12.4 °C 34063.2 hPa SSW 8.5 km/h 8.5 km/h 73 % 0 mm
20:36 -9.8 °C -12.6 °C 34063.2 hPa West 15 km/h 15 km/h 72 % 0 mm
20:41 -9.8 °C -12.5 °C 34063.2 hPa SW 6 km/h 6 km/h 73 % 0 mm
20:46 -9.8 °C -12.5 °C 34063.2 hPa WSW 6 km/h 6.3 km/h 73 % 0 mm
20:51 -9.8 °C -12.4 °C 34063.2 hPa WSW 6 km/h 6 km/h 74 % 0 mm
20:56 -9.8 °C -12.4 °C 34063.2 hPa WSW 6 km/h 6 km/h 74 % 0 mm
21:01 -9.9 °C -12.3 °C 34063.2 hPa SW 3.7 km/h 3.7 km/h 75 % 0 mm
21:06 -9.9 °C -12.3 °C 34063.2 hPa North 3.1 km/h   76 % 0 mm
21:11 -9.9 °C -12.3 °C 34063.2 hPa North 3.1 km/h   76 % 0 mm
21:16 -9.9 °C -12.2 °C 34063.2 hPa NNE 6 km/h 6 km/h 77 % 0 mm
21:21 -10.1 °C -12.2 °C 34029.3 hPa NNE 8 km/h 8 km/h 78 % 0 mm
21:26 -10.1 °C -12.2 °C 34029.3 hPa NNE 5.6 km/h 5.6 km/h 78 % 0 mm
21:31 -10.1 °C -12.2 °C 34029.3 hPa ENE 6 km/h 6 km/h 78 % 0 mm
21:36 -10.2 °C -12.2 °C 33992.1 hPa ENE 6 km/h   79 % 0 mm
21:41 -10.2 °C -12.2 °C 33992.1 hPa Calm     79 % 0 mm
21:46 -10.2 °C -12.3 °C 33992.1 hPa Calm     78 % 0 mm
21:51 -10.2 °C -12.3 °C 33992.1 hPa West 4.2 km/h 4.2 km/h 78 % 0 mm
21:56 -10.2 °C -12.3 °C 33992.1 hPa WSW 6 km/h 6 km/h 78 % 0 mm
22:01 -10.2 °C -12.2 °C 33992.1 hPa Calm     79 % 0 mm
22:06 -10.3 °C -12.2 °C 33992.1 hPa Calm     80 % 0 mm
22:11 -10.3 °C -12.2 °C 33992.1 hPa Calm     80 % 0 mm
22:16 -10.3 °C -12.2 °C 33992.1 hPa Calm     80 % 0 mm
22:21 -10.3 °C -12.2 °C 33992.1 hPa WSW 3.1 km/h   80 % 0 mm
22:26 -10.4 °C -12.3 °C 33992.1 hPa WSW 3.1 km/h   80 % 0 mm
22:31 -10.4 °C -12.3 °C 33992.1 hPa WSW 3.7 km/h   80 % 0 mm
22:36 -10.5 °C -12.4 °C 33958.2 hPa Calm     80 % 0 mm
22:37 -10.5 °C -12.4 °C 33958.2 hPa Calm     80 % 0 mm
22:42 -10.5 °C -12.3 °C 33958.2 hPa Calm     81 % 0 mm
22:47 -10.5 °C -12.3 °C 33958.2 hPa Calm     81 % 0 mm
22:52 -10.6 °C -12.3 °C 33992.1 hPa Calm     81 % 0 mm
22:57 -10.6 °C -12.3 °C 33992.1 hPa Calm     81 % 0 mm
23:02 -10.6 °C -12.3 °C 33992.1 hPa Calm     81 % 0 mm
23:07 -10.6 °C -12.2 °C 33958.2 hPa NNE 3.1 km/h   82 % 0 mm
23:12 -10.6 °C -12.4 °C 33958.2 hPa SW 6 km/h 6 km/h 81 % 0 mm
23:17 -10.7 °C -12.5 °C 33958.2 hPa Calm     81 % 0 mm
23:22 -10.8 °C -12.4 °C 33992.1 hPa Calm     82 % 0 mm
23:27 -10.8 °C -12.5 °C 33992.1 hPa WSW 5.6 km/h 5.6 km/h 82 % 0 mm
23:32 -10.9 °C -12.7 °C 33992.1 hPa SW 6 km/h 6 km/h 81 % 0 mm
23:37 -10.9 °C -12.7 °C 33992.1 hPa West 6 km/h 6 km/h 81 % 0 mm
23:42 -10.9 °C -12.6 °C 33992.1 hPa SW 4.2 km/h 4.2 km/h 82 % 0 mm
23:47 -10.9 °C -12.6 °C 33992.1 hPa WSW 6 km/h 6 km/h 82 % 0 mm
23:52 -10.9 °C -12.6 °C 33992.1 hPa Calm     82 % 0 mm
23:57 -10.9 °C -12.5 °C 33992.1 hPa Calm     83 % 0 mm
Meteo Sesrovires
Elogis d' Weather Underground - 1.75 mb

Guio original per  Jim McMurry - jmcmurry@mwt.net Adaptat per a la plantilla per  Wim van der Kuil - Leuven-Template.eu

Trobareu la nostra informacio del temps tambe a:

Weather Underground

AWEKAS